Westcliff-on-Sea, United Kingdom
Current Conditions -  °F | °C
As of 11:50 PM on Friday 21 Nov 2014 (Local Time) from EGMC Reporting Station
Overcast Overcast  
Wind Chill: 50°   Ceiling: 800
Heat Index: 50°   Visibility: 4mi
Dew Point: 46°   Wind: 7mph
Humidity: 87%   Direction: 130°SE
Pressure: 29.91"   Gusts: NA
Location:  51.55°N, 0.68°E
Report Text: EGMC 212350Z 13006KT 7000 OVC008 10/08 Q1013
Loading
Personal Weather Stations






























Interactive Weather Map New forecast layout! Learn more

10-Day Weather Forecast

Advertisements
Track Severe Weather on mobile